sensor_id;sensor_type;location;lat;lon;timestamp;temperature;humidity
2439;DHT22;14509;47.992;7.848;2023-04-20T00:01:48;13.50;52.40
2439;DHT22;14509;47.992;7.848;2023-04-20T00:03:51;13.40;52.30
2439;DHT22;14509;47.992;7.848;2023-04-20T00:05:54;13.40;52.40
2439;DHT22;14509;47.992;7.848;2023-04-20T00:07:56;13.30;52.50
2439;DHT22;14509;47.992;7.848;2023-04-20T00:09:59;13.50;52.70
2439;DHT22;14509;47.992;7.848;2023-04-20T00:12:01;13.30;52.60
2439;DHT22;14509;47.992;7.848;2023-04-20T00:14:03;13.30;52.50
2439;DHT22;14509;47.992;7.848;2023-04-20T00:16:05;13.20;52.20
2439;DHT22;14509;47.992;7.848;2023-04-20T00:18:07;13.20;52.20
2439;DHT22;14509;47.992;7.848;2023-04-20T00:20:10;13.20;52.20
2439;DHT22;14509;47.992;7.848;2023-04-20T00:22:14;13.20;52.30
2439;DHT22;14509;47.992;7.848;2023-04-20T00:24:16;13.20;52.80
2439;DHT22;14509;47.992;7.848;2023-04-20T00:26:18;13.20;52.30
2439;DHT22;14509;47.992;7.848;2023-04-20T00:28:23;13.00;52.10
2439;DHT22;14509;47.992;7.848;2023-04-20T00:30:25;13.10;52.10
2439;DHT22;14509;47.992;7.848;2023-04-20T00:32:27;13.10;52.00
2439;DHT22;14509;47.992;7.848;2023-04-20T00:34:29;13.10;51.90
2439;DHT22;14509;47.992;7.848;2023-04-20T00:36:34;13.20;52.10
2439;DHT22;14509;47.992;7.848;2023-04-20T00:38:37;13.10;51.90
2439;DHT22;14509;47.992;7.848;2023-04-20T00:40:42;13.10;51.70
2439;DHT22;14509;47.992;7.848;2023-04-20T00:42:43;13.10;51.60
2439;DHT22;14509;47.992;7.848;2023-04-20T00:44:45;13.10;51.50
2439;DHT22;14509;47.992;7.848;2023-04-20T00:46:49;13.00;51.20
2439;DHT22;14509;47.992;7.848;2023-04-20T00:48:55;13.10;51.20
2439;DHT22;14509;47.992;7.848;2023-04-20T00:50:57;13.10;51.20
2439;DHT22;14509;47.992;7.848;2023-04-20T00:52:59;13.10;51.20
2439;DHT22;14509;47.992;7.848;2023-04-20T00:55:05;13.10;50.90
2439;DHT22;14509;47.992;7.848;2023-04-20T00:57:07;13.10;50.80
2439;DHT22;14509;47.992;7.848;2023-04-20T00:59:09;13.10;50.60
2439;DHT22;14509;47.992;7.848;2023-04-20T01:01:11;13.20;50.40
2439;DHT22;14509;47.992;7.848;2023-04-20T01:03:17;13.20;50.20
2439;DHT22;14509;47.992;7.848;2023-04-20T01:05:22;13.20;50.10
2439;DHT22;14509;47.992;7.848;2023-04-20T01:07:24;13.20;50.00
2439;DHT22;14509;47.992;7.848;2023-04-20T01:09:26;13.20;50.00
2439;DHT22;14509;47.992;7.848;2023-04-20T01:11:29;13.20;49.80
2439;DHT22;14509;47.992;7.848;2023-04-20T01:13:31;13.20;49.60
2439;DHT22;14509;47.992;7.848;2023-04-20T01:15:33;13.20;49.60
2439;DHT22;14509;47.992;7.848;2023-04-20T01:17:35;13.20;49.50
2439;DHT22;14509;47.992;7.848;2023-04-20T01:19:39;13.20;49.40
2439;DHT22;14509;47.992;7.848;2023-04-20T01:21:41;13.20;49.30
2439;DHT22;14509;47.992;7.848;2023-04-20T01:23:45;13.10;49.20
2439;DHT22;14509;47.992;7.848;2023-04-20T01:25:47;13.20;49.30
2439;DHT22;14509;47.992;7.848;2023-04-20T01:27:49;13.10;49.20
2439;DHT22;14509;47.992;7.848;2023-04-20T01:29:51;13.10;49.30
2439;DHT22;14509;47.992;7.848;2023-04-20T01:31:52;13.10;49.30
2439;DHT22;14509;47.992;7.848;2023-04-20T01:33:54;13.10;49.50
2439;DHT22;14509;47.992;7.848;2023-04-20T01:35:56;13.10;49.70
2439;DHT22;14509;47.992;7.848;2023-04-20T01:37:58;13.10;49.80
2439;DHT22;14509;47.992;7.848;2023-04-20T01:40:02;13.30;50.00
2439;DHT22;14509;47.992;7.848;2023-04-20T01:42:06;13.10;49.70
2439;DHT22;14509;47.992;7.848;2023-04-20T01:44:07;13.10;49.70
2439;DHT22;14509;47.992;7.848;2023-04-20T01:46:11;13.00;49.60
2439;DHT22;14509;47.992;7.848;2023-04-20T01:48:13;13.20;49.60
2439;DHT22;14509;47.992;7.848;2023-04-20T01:50:16;13.00;49.40
2439;DHT22;14509;47.992;7.848;2023-04-20T01:52:17;12.90;49.20
2439;DHT22;14509;47.992;7.848;2023-04-20T01:54:22;12.90;49.20
2439;DHT22;14509;47.992;7.848;2023-04-20T01:56:26;12.90;49.20
2439;DHT22;14509;47.992;7.848;2023-04-20T01:58:28;12.80;49.10
2439;DHT22;14509;47.992;7.848;2023-04-20T02:00:30;13.40;49.40
2439;DHT22;14509;47.992;7.848;2023-04-20T02:02:33;12.80;48.80
2439;DHT22;14509;47.992;7.848;2023-04-20T02:04:35;12.80;48.90
2439;DHT22;14509;47.992;7.848;2023-04-20T02:06:37;13.00;49.10
2439;DHT22;14509;47.992;7.848;2023-04-20T02:08:43;12.80;49.00
2439;DHT22;14509;47.992;7.848;2023-04-20T02:10:45;12.80;49.20
2439;DHT22;14509;47.992;7.848;2023-04-20T02:12:49;12.80;49.40
2439;DHT22;14509;47.992;7.848;2023-04-20T02:14:51;12.90;49.50
2439;DHT22;14509;47.992;7.848;2023-04-20T02:16:55;12.80;49.40
2439;DHT22;14509;47.992;7.848;2023-04-20T02:18:57;13.00;49.70
2439;DHT22;14509;47.992;7.848;2023-04-20T02:20:59;12.60;49.50
2439;DHT22;14509;47.992;7.848;2023-04-20T02:23:01;12.80;49.70
2439;DHT22;14509;47.992;7.848;2023-04-20T02:25:04;12.90;49.80
2439;DHT22;14509;47.992;7.848;2023-04-20T02:27:06;12.80;49.70
2439;DHT22;14509;47.992;7.848;2023-04-20T02:29:10;12.80;49.60
2439;DHT22;14509;47.992;7.848;2023-04-20T02:31:12;12.80;49.50
2439;DHT22;14509;47.992;7.848;2023-04-20T02:33:14;12.70;49.40
2439;DHT22;14509;47.992;7.848;2023-04-20T02:35:16;12.80;49.30
2439;DHT22;14509;47.992;7.848;2023-04-20T02:37:18;12.80;49.30
2439;DHT22;14509;47.992;7.848;2023-04-20T02:39:20;12.80;49.20
2439;DHT22;14509;47.992;7.848;2023-04-20T02:41:22;12.80;49.10
2439;DHT22;14509;47.992;7.848;2023-04-20T02:43:24;12.80;49.10
2439;DHT22;14509;47.992;7.848;2023-04-20T02:45:28;12.80;49.00
2439;DHT22;14509;47.992;7.848;2023-04-20T02:47:31;12.80;49.10
2439;DHT22;14509;47.992;7.848;2023-04-20T02:49:33;12.80;49.10
2439;DHT22;14509;47.992;7.848;2023-04-20T02:51:36;12.80;49.20
2439;DHT22;14509;47.992;7.848;2023-04-20T02:53:37;12.90;49.40
2439;DHT22;14509;47.992;7.848;2023-04-20T02:55:52;12.80;49.40
2439;DHT22;14509;47.992;7.848;2023-04-20T02:58:07;12.80;49.50
2439;DHT22;14509;47.992;7.848;2023-04-20T03:00:34;12.80;49.50
2439;DHT22;14509;47.992;7.848;2023-04-20T03:02:40;12.80;49.50
2439;DHT22;14509;47.992;7.848;2023-04-20T03:04:42;12.70;49.60
2439;DHT22;14509;47.992;7.848;2023-04-20T03:06:52;12.70;49.70
2439;DHT22;14509;47.992;7.848;2023-04-20T03:09:00;12.70;49.70
2439;DHT22;14509;47.992;7.848;2023-04-20T03:11:22;12.70;49.80
2439;DHT22;14509;47.992;7.848;2023-04-20T03:13:24;12.60;49.80
2439;DHT22;14509;47.992;7.848;2023-04-20T03:15:30;12.60;49.80
2439;DHT22;14509;47.992;7.848;2023-04-20T03:17:45;12.60;49.90
2439;DHT22;14509;47.992;7.848;2023-04-20T03:19:47;12.60;50.00
2439;DHT22;14509;47.992;7.848;2023-04-20T03:21:49;12.60;50.00
2439;DHT22;14509;47.992;7.848;2023-04-20T03:23:51;12.60;50.10
2439;DHT22;14509;47.992;7.848;2023-04-20T03:25:53;12.60;50.10
2439;DHT22;14509;47.992;7.848;2023-04-20T03:28:20;12.50;50.20
2439;DHT22;14509;47.992;7.848;2023-04-20T03:30:22;12.50;50.40
2439;DHT22;14509;47.992;7.848;2023-04-20T03:32:31;12.50;50.50
2439;DHT22;14509;47.992;7.848;2023-04-20T03:34:34;12.50;50.60
2439;DHT22;14509;47.992;7.848;2023-04-20T03:36:36;12.40;50.60
2439;DHT22;14509;47.992;7.848;2023-04-20T03:38:38;12.40;51.20
2439;DHT22;14509;47.992;7.848;2023-04-20T03:40:40;12.40;50.70
2439;DHT22;14509;47.992;7.848;2023-04-20T03:42:43;12.50;50.90
2439;DHT22;14509;47.992;7.848;2023-04-20T03:44:45;12.70;51.10
2439;DHT22;14509;47.992;7.848;2023-04-20T03:46:47;12.40;51.00
2439;DHT22;14509;47.992;7.848;2023-04-20T03:48:49;12.30;51.00
2439;DHT22;14509;47.992;7.848;2023-04-20T03:50:52;12.50;51.30
2439;DHT22;14509;47.992;7.848;2023-04-20T03:52:54;12.30;51.10
2439;DHT22;14509;47.992;7.848;2023-04-20T03:54:56;12.30;51.20
2439;DHT22;14509;47.992;7.848;2023-04-20T03:56:58;12.20;51.20
2439;DHT22;14509;47.992;7.848;2023-04-20T03:59:01;12.20;51.30
2439;DHT22;14509;47.992;7.848;2023-04-20T04:01:05;12.20;51.40
2439;DHT22;14509;47.992;7.848;2023-04-20T04:03:10;12.10;51.40
2439;DHT22;14509;47.992;7.848;2023-04-20T04:05:12;12.20;51.50
2439;DHT22;14509;47.992;7.848;2023-04-20T04:07:15;12.20;51.50
2439;DHT22;14509;47.992;7.848;2023-04-20T04:09:18;12.10;51.50
2439;DHT22;14509;47.992;7.848;2023-04-20T04:11:20;12.10;51.60
2439;DHT22;14509;47.992;7.848;2023-04-20T04:13:21;12.10;51.70
2439;DHT22;14509;47.992;7.848;2023-04-20T04:15:23;12.10;51.80
2439;DHT22;14509;47.992;7.848;2023-04-20T04:17:35;12.10;51.90
2439;DHT22;14509;47.992;7.848;2023-04-20T04:19:39;12.00;51.90
2439;DHT22;14509;47.992;7.848;2023-04-20T04:21:40;12.10;52.20
2439;DHT22;14509;47.992;7.848;2023-04-20T04:23:44;12.30;52.40
2439;DHT22;14509;47.992;7.848;2023-04-20T04:26:07;12.00;52.20
2439;DHT22;14509;47.992;7.848;2023-04-20T04:28:12;12.00;52.30
2439;DHT22;14509;47.992;7.848;2023-04-20T04:30:23;12.00;52.40
2439;DHT22;14509;47.992;7.848;2023-04-20T04:32:25;11.90;52.40
2439;DHT22;14509;47.992;7.848;2023-04-20T04:34:27;11.90;52.50
2439;DHT22;14509;47.992;7.848;2023-04-20T04:36:30;11.90;52.60
2439;DHT22;14509;47.992;7.848;2023-04-20T04:38:33;11.90;52.70
2439;DHT22;14509;47.992;7.848;2023-04-20T04:40:36;11.90;52.80
2439;DHT22;14509;47.992;7.848;2023-04-20T04:42:40;11.80;53.40
2439;DHT22;14509;47.992;7.848;2023-04-20T04:44:44;11.80;52.90
2439;DHT22;14509;47.992;7.848;2023-04-20T04:46:51;11.80;52.90
2439;DHT22;14509;47.992;7.848;2023-04-20T04:48:54;11.80;53.00
2439;DHT22;14509;47.992;7.848;2023-04-20T04:50:56;11.80;52.90
2439;DHT22;14509;47.992;7.848;2023-04-20T04:52:57;11.80;53.00
2439;DHT22;14509;47.992;7.848;2023-04-20T04:55:00;12.10;53.10
2439;DHT22;14509;47.992;7.848;2023-04-20T04:57:03;11.80;52.30
2439;DHT22;14509;47.992;7.848;2023-04-20T04:59:05;11.80;51.90
2439;DHT22;14509;47.992;7.848;2023-04-20T05:01:07;11.70;51.80
2439;DHT22;14509;47.992;7.848;2023-04-20T05:03:09;12.00;52.00
2439;DHT22;14509;47.992;7.848;2023-04-20T05:05:11;11.80;52.20
2439;DHT22;14509;47.992;7.848;2023-04-20T05:07:13;11.70;51.60
2439;DHT22;14509;47.992;7.848;2023-04-20T05:09:15;11.80;51.70
2439;DHT22;14509;47.992;7.848;2023-04-20T05:11:17;11.80;51.60
2439;DHT22;14509;47.992;7.848;2023-04-20T05:13:20;11.90;51.70
2439;DHT22;14509;47.992;7.848;2023-04-20T05:15:22;11.90;51.60
2439;DHT22;14509;47.992;7.848;2023-04-20T05:17:24;11.90;51.00
2439;DHT22;14509;47.992;7.848;2023-04-20T05:19:26;11.90;50.60
2439;DHT22;14509;47.992;7.848;2023-04-20T05:21:28;11.90;50.40
2439;DHT22;14509;47.992;7.848;2023-04-20T05:23:30;11.90;50.20
2439;DHT22;14509;47.992;7.848;2023-04-20T05:25:32;12.00;50.10
2439;DHT22;14509;47.992;7.848;2023-04-20T05:27:34;12.00;50.00
2439;DHT22;14509;47.992;7.848;2023-04-20T05:29:38;12.00;49.90
2439;DHT22;14509;47.992;7.848;2023-04-20T05:31:40;11.90;49.90
2439;DHT22;14509;47.992;7.848;2023-04-20T05:33:42;12.00;50.10
2439;DHT22;14509;47.992;7.848;2023-04-20T05:35:44;11.90;50.00
2439;DHT22;14509;47.992;7.848;2023-04-20T05:37:46;12.20;50.00
2439;DHT22;14509;47.992;7.848;2023-04-20T05:39:48;11.80;49.30
2439;DHT22;14509;47.992;7.848;2023-04-20T05:41:50;11.90;49.30
2439;DHT22;14509;47.992;7.848;2023-04-20T05:43:52;12.00;49.50
2439;DHT22;14509;47.992;7.848;2023-04-20T05:45:55;11.40;49.20
2439;DHT22;14509;47.992;7.848;2023-04-20T05:47:58;11.50;49.50
2439;DHT22;14509;47.992;7.848;2023-04-20T05:49:59;11.40;49.60
2439;DHT22;14509;47.992;7.848;2023-04-20T05:52:02;11.30;49.70
2439;DHT22;14509;47.992;7.848;2023-04-20T05:54:04;11.30;50.00
2439;DHT22;14509;47.992;7.848;2023-04-20T05:56:06;11.20;50.00
2439;DHT22;14509;47.992;7.848;2023-04-20T05:58:08;11.20;50.20
2439;DHT22;14509;47.992;7.848;2023-04-20T06:00:13;11.20;50.20
2439;DHT22;14509;47.992;7.848;2023-04-20T06:02:17;11.20;50.30
2439;DHT22;14509;47.992;7.848;2023-04-20T06:04:19;11.20;50.00
2439;DHT22;14509;47.992;7.848;2023-04-20T06:06:21;11.50;50.30
2439;DHT22;14509;47.992;7.848;2023-04-20T06:08:23;11.40;50.30
2439;DHT22;14509;47.992;7.848;2023-04-20T06:10:25;11.50;50.10
2439;DHT22;14509;47.992;7.848;2023-04-20T06:12:31;11.80;50.10
2439;DHT22;14509;47.992;7.848;2023-04-20T06:14:33;11.70;49.80
2439;DHT22;14509;47.992;7.848;2023-04-20T06:16:35;12.00;49.60
2439;DHT22;14509;47.992;7.848;2023-04-20T06:18:38;11.90;49.10
2439;DHT22;14509;47.992;7.848;2023-04-20T06:20:42;12.10;48.70
2439;DHT22;14509;47.992;7.848;2023-04-20T06:22:44;12.80;48.60
2439;DHT22;14509;47.992;7.848;2023-04-20T06:24:46;12.20;48.60
2439;DHT22;14509;47.992;7.848;2023-04-20T06:26:48;12.20;47.80
2439;DHT22;14509;47.992;7.848;2023-04-20T06:28:50;12.30;47.60
2439;DHT22;14509;47.992;7.848;2023-04-20T06:30:52;12.30;47.50
2439;DHT22;14509;47.992;7.848;2023-04-20T06:32:54;12.30;47.40
2439;DHT22;14509;47.992;7.848;2023-04-20T06:34:58;12.30;47.30
2439;DHT22;14509;47.992;7.848;2023-04-20T06:36:59;12.20;47.20
2439;DHT22;14509;47.992;7.848;2023-04-20T06:39:02;12.30;47.50
2439;DHT22;14509;47.992;7.848;2023-04-20T06:41:04;12.30;47.30
2439;DHT22;14509;47.992;7.848;2023-04-20T06:43:06;12.40;47.10
2439;DHT22;14509;47.992;7.848;2023-04-20T06:45:09;12.40;47.10
2439;DHT22;14509;47.992;7.848;2023-04-20T06:47:11;12.50;47.20
2439;DHT22;14509;47.992;7.848;2023-04-20T06:49:13;12.60;46.50
2439;DHT22;14509;47.992;7.848;2023-04-20T06:51:17;12.60;46.40
2439;DHT22;14509;47.992;7.848;2023-04-20T06:53:19;12.70;46.40
2439;DHT22;14509;47.992;7.848;2023-04-20T06:55:21;12.80;46.30
2439;DHT22;14509;47.992;7.848;2023-04-20T06:57:23;12.90;45.90
2439;DHT22;14509;47.992;7.848;2023-04-20T06:59:25;13.00;45.70
2439;DHT22;14509;47.992;7.848;2023-04-20T07:01:27;13.10;45.70
2439;DHT22;14509;47.992;7.848;2023-04-20T07:03:29;13.10;45.20
2439;DHT22;14509;47.992;7.848;2023-04-20T07:05:31;13.20;45.30
2439;DHT22;14509;47.992;7.848;2023-04-20T07:07:35;13.60;45.40
2439;DHT22;14509;47.992;7.848;2023-04-20T07:09:37;13.40;44.50
2439;DHT22;14509;47.992;7.848;2023-04-20T07:11:39;14.00;44.90
2439;DHT22;14509;47.992;7.848;2023-04-20T07:13:41;13.50;44.40
2439;DHT22;14509;47.992;7.848;2023-04-20T07:15:44;13.60;44.30
2439;DHT22;14509;47.992;7.848;2023-04-20T07:17:46;13.60;44.30
2439;DHT22;14509;47.992;7.848;2023-04-20T07:19:48;13.50;43.60
2439;DHT22;14509;47.992;7.848;2023-04-20T07:21:52;13.50;43.90
2439;DHT22;14509;47.992;7.848;2023-04-20T07:23:55;13.50;44.00
2439;DHT22;14509;47.992;7.848;2023-04-20T07:25:58;13.50;44.00
2439;DHT22;14509;47.992;7.848;2023-04-20T07:28:00;13.70;44.30
2439;DHT22;14509;47.992;7.848;2023-04-20T07:30:03;13.50;44.20
2439;DHT22;14509;47.992;7.848;2023-04-20T07:32:05;13.50;44.20
2439;DHT22;14509;47.992;7.848;2023-04-20T07:34:08;13.60;44.20
2439;DHT22;14509;47.992;7.848;2023-04-20T07:36:10;13.60;44.00
2439;DHT22;14509;47.992;7.848;2023-04-20T07:38:12;13.70;44.00
2439;DHT22;14509;47.992;7.848;2023-04-20T07:40:16;13.70;43.80
2439;DHT22;14509;47.992;7.848;2023-04-20T07:42:18;13.80;44.00
2439;DHT22;14509;47.992;7.848;2023-04-20T07:44:20;13.60;43.80
2439;DHT22;14509;47.992;7.848;2023-04-20T07:46:22;13.50;44.00
2439;DHT22;14509;47.992;7.848;2023-04-20T07:48:24;13.60;44.20
2439;DHT22;14509;47.992;7.848;2023-04-20T07:50:27;13.50;44.40
2439;DHT22;14509;47.992;7.848;2023-04-20T07:52:29;13.60;44.60
2439;DHT22;14509;47.992;7.848;2023-04-20T07:54:31;13.60;44.70
2439;DHT22;14509;47.992;7.848;2023-04-20T07:56:34;13.90;45.00
2439;DHT22;14509;47.992;7.848;2023-04-20T07:58:37;13.60;45.00
2439;DHT22;14509;47.992;7.848;2023-04-20T08:00:40;13.60;45.20
2439;DHT22;14509;47.992;7.848;2023-04-20T08:02:43;13.60;45.20
2439;DHT22;14509;47.992;7.848;2023-04-20T08:04:46;13.60;44.90
2439;DHT22;14509;47.992;7.848;2023-04-20T08:06:49;13.70;45.10
2439;DHT22;14509;47.992;7.848;2023-04-20T08:08:52;13.70;45.00
2439;DHT22;14509;47.992;7.848;2023-04-20T08:10:55;13.80;45.20
2439;DHT22;14509;47.992;7.848;2023-04-20T08:13:00;13.80;45.20
2439;DHT22;14509;47.992;7.848;2023-04-20T08:15:02;13.90;45.20
2439;DHT22;14509;47.992;7.848;2023-04-20T08:17:06;13.90;45.10
2439;DHT22;14509;47.992;7.848;2023-04-20T08:19:07;13.90;45.00
2439;DHT22;14509;47.992;7.848;2023-04-20T08:21:10;13.90;44.90
2439;DHT22;14509;47.992;7.848;2023-04-20T08:23:13;14.20;45.10
2439;DHT22;14509;47.992;7.848;2023-04-20T08:25:15;14.40;45.30
2439;DHT22;14509;47.992;7.848;2023-04-20T08:27:17;14.10;44.90
2439;DHT22;14509;47.992;7.848;2023-04-20T08:29:21;14.20;44.90
2439;DHT22;14509;47.992;7.848;2023-04-20T18:51:13;13.70;43.70
2439;DHT22;14509;47.992;7.848;2023-04-20T18:53:15;13.70;44.00
2439;DHT22;14509;47.992;7.848;2023-04-20T18:55:17;13.60;44.40
2439;DHT22;14509;47.992;7.848;2023-04-20T18:57:19;13.50;44.60
2439;DHT22;14509;47.992;7.848;2023-04-20T18:59:25;13.40;44.90
2439;DHT22;14509;47.992;7.848;2023-04-20T19:01:27;13.30;45.00
2439;DHT22;14509;47.992;7.848;2023-04-20T19:03:30;13.30;45.20
2439;DHT22;14509;47.992;7.848;2023-04-20T19:05:32;13.20;45.40
2439;DHT22;14509;47.992;7.848;2023-04-20T19:07:35;13.20;45.60
2439;DHT22;14509;47.992;7.848;2023-04-20T19:09:37;13.10;45.80
2439;DHT22;14509;47.992;7.848;2023-04-20T19:11:39;13.00;45.90
2439;DHT22;14509;47.992;7.848;2023-04-20T19:13:42;13.00;46.00
2439;DHT22;14509;47.992;7.848;2023-04-20T19:15:44;12.90;46.40
2439;DHT22;14509;47.992;7.848;2023-04-20T19:17:46;12.80;46.50
2439;DHT22;14509;47.992;7.848;2023-04-20T19:19:48;12.80;46.60
2439;DHT22;14509;47.992;7.848;2023-04-20T19:21:52;12.90;46.90
2439;DHT22;14509;47.992;7.848;2023-04-20T19:23:56;12.70;47.00
2439;DHT22;14509;47.992;7.848;2023-04-20T19:25:57;12.60;47.10
2439;DHT22;14509;47.992;7.848;2023-04-20T19:27:59;12.60;47.80
2439;DHT22;14509;47.992;7.848;2023-04-20T19:30:02;12.50;47.20
2439;DHT22;14509;47.992;7.848;2023-04-20T19:32:04;12.50;47.30
2439;DHT22;14509;47.992;7.848;2023-04-20T19:34:06;12.40;47.40
2439;DHT22;14509;47.992;7.848;2023-04-20T19:36:08;12.40;47.40
2439;DHT22;14509;47.992;7.848;2023-04-20T19:38:10;12.30;47.40
2439;DHT22;14509;47.992;7.848;2023-04-20T19:40:14;12.20;47.60
2439;DHT22;14509;47.992;7.848;2023-04-20T19:42:16;12.10;47.60
2439;DHT22;14509;47.992;7.848;2023-04-20T19:44:19;12.10;47.90
2439;DHT22;14509;47.992;7.848;2023-04-20T19:46:20;12.00;47.90
2439;DHT22;14509;47.992;7.848;2023-04-20T19:48:23;12.00;47.90
2439;DHT22;14509;47.992;7.848;2023-04-20T19:50:25;11.90;48.00
2439;DHT22;14509;47.992;7.848;2023-04-20T19:52:27;11.90;48.20
2439;DHT22;14509;47.992;7.848;2023-04-20T19:54:29;11.80;48.30
2439;DHT22;14509;47.992;7.848;2023-04-20T19:56:32;11.80;48.30
2439;DHT22;14509;47.992;7.848;2023-04-20T19:58:36;11.70;48.50
2439;DHT22;14509;47.992;7.848;2023-04-20T20:00:38;11.70;48.60
2439;DHT22;14509;47.992;7.848;2023-04-20T20:02:41;11.70;48.70
2439;DHT22;14509;47.992;7.848;2023-04-20T20:04:43;11.60;48.70
2439;DHT22;14509;47.992;7.848;2023-04-20T20:06:45;11.60;48.70
2439;DHT22;14509;47.992;7.848;2023-04-20T20:08:49;11.60;48.90
2439;DHT22;14509;47.992;7.848;2023-04-20T20:10:51;11.50;49.00
2439;DHT22;14509;47.992;7.848;2023-04-20T20:12:55;11.60;49.00
2439;DHT22;14509;47.992;7.848;2023-04-20T20:14:57;11.90;49.40
2439;DHT22;14509;47.992;7.848;2023-04-20T20:16:59;11.40;49.00
2439;DHT22;14509;47.992;7.848;2023-04-20T20:19:01;11.40;49.10
2439;DHT22;14509;47.992;7.848;2023-04-20T20:21:03;11.30;49.10
2439;DHT22;14509;47.992;7.848;2023-04-20T20:23:06;11.40;49.40
2439;DHT22;14509;47.992;7.848;2023-04-20T20:25:08;11.20;49.40
2439;DHT22;14509;47.992;7.848;2023-04-20T20:27:10;11.20;49.50
2439;DHT22;14509;47.992;7.848;2023-04-20T20:29:14;11.20;49.60
2439;DHT22;14509;47.992;7.848;2023-04-20T20:31:16;11.30;49.70
2439;DHT22;14509;47.992;7.848;2023-04-20T20:33:18;11.80;50.10
2439;DHT22;14509;47.992;7.848;2023-04-20T20:35:20;11.40;49.80
2439;DHT22;14509;47.992;7.848;2023-04-20T20:37:22;11.10;49.70
2439;DHT22;14509;47.992;7.848;2023-04-20T20:39:24;11.10;49.70
2439;DHT22;14509;47.992;7.848;2023-04-20T20:41:26;11.00;49.70
2439;DHT22;14509;47.992;7.848;2023-04-20T20:43:30;11.10;49.80
2439;DHT22;14509;47.992;7.848;2023-04-20T20:45:33;11.00;49.70
2439;DHT22;14509;47.992;7.848;2023-04-20T20:47:36;11.30;50.10
2439;DHT22;14509;47.992;7.848;2023-04-20T20:49:39;10.90;50.00
2439;DHT22;14509;47.992;7.848;2023-04-20T20:51:41;10.80;49.90
2439;DHT22;14509;47.992;7.848;2023-04-20T20:53:43;10.80;50.10
2439;DHT22;14509;47.992;7.848;2023-04-20T20:55:45;10.70;50.00
2439;DHT22;14509;47.992;7.848;2023-04-20T20:57:47;10.70;50.00
2439;DHT22;14509;47.992;7.848;2023-04-20T20:59:49;10.70;50.10
2439;DHT22;14509;47.992;7.848;2023-04-20T21:01:53;10.70;50.20
2439;DHT22;14509;47.992;7.848;2023-04-20T21:03:55;10.60;50.10
2439;DHT22;14509;47.992;7.848;2023-04-20T21:05:57;10.50;50.10
2439;DHT22;14509;47.992;7.848;2023-04-20T21:07:59;10.80;50.80
2439;DHT22;14509;47.992;7.848;2023-04-20T21:10:01;10.30;50.60
2439;DHT22;14509;47.992;7.848;2023-04-20T21:12:04;10.60;50.90
2439;DHT22;14509;47.992;7.848;2023-04-20T21:14:06;10.30;50.90
2439;DHT22;14509;47.992;7.848;2023-04-20T21:16:08;11.30;51.70
2439;DHT22;14509;47.992;7.848;2023-04-20T21:18:12;10.40;51.00
2439;DHT22;14509;47.992;7.848;2023-04-20T21:20:14;10.20;50.90
2439;DHT22;14509;47.992;7.848;2023-04-20T21:22:16;10.20;51.00
2439;DHT22;14509;47.992;7.848;2023-04-20T21:24:19;10.20;50.90
2439;DHT22;14509;47.992;7.848;2023-04-20T21:26:22;10.20;51.20
2439;DHT22;14509;47.992;7.848;2023-04-20T21:28:24;10.10;51.20
2439;DHT22;14509;47.992;7.848;2023-04-20T21:30:26;10.10;51.40
2439;DHT22;14509;47.992;7.848;2023-04-20T21:32:28;10.10;51.50
2439;DHT22;14509;47.992;7.848;2023-04-20T21:34:31;10.00;51.40
2439;DHT22;14509;47.992;7.848;2023-04-20T21:36:33;10.60;51.90
2439;DHT22;14509;47.992;7.848;2023-04-20T21:38:35;10.00;51.50
2439;DHT22;14509;47.992;7.848;2023-04-20T21:40:37;10.40;51.80
2439;DHT22;14509;47.992;7.848;2023-04-20T21:42:39;9.90;52.50
2439;DHT22;14509;47.992;7.848;2023-04-20T21:44:41;10.00;51.60
2439;DHT22;14509;47.992;7.848;2023-04-20T21:46:43;9.90;52.40
2439;DHT22;14509;47.992;7.848;2023-04-20T21:48:45;9.80;52.30
2439;DHT22;14509;47.992;7.848;2023-04-20T21:50:49;9.80;52.50
2439;DHT22;14509;47.992;7.848;2023-04-20T21:52:52;9.80;52.70
2439;DHT22;14509;47.992;7.848;2023-04-20T21:54:54;9.80;52.80
2439;DHT22;14509;47.992;7.848;2023-04-20T21:56:56;9.70;52.70
2439;DHT22;14509;47.992;7.848;2023-04-20T21:58:59;9.60;52.70
2439;DHT22;14509;47.992;7.848;2023-04-20T22:01:01;9.60;52.70
2439;DHT22;14509;47.992;7.848;2023-04-20T22:03:03;9.60;53.20
2439;DHT22;14509;47.992;7.848;2023-04-20T22:05:06;9.60;53.10
2439;DHT22;14509;47.992;7.848;2023-04-20T22:07:10;9.60;53.10
2439;DHT22;14509;47.992;7.848;2023-04-20T22:09:12;9.50;52.90
2439;DHT22;14509;47.992;7.848;2023-04-20T22:11:14;9.50;52.90
2439;DHT22;14509;47.992;7.848;2023-04-20T22:13:16;9.50;53.00
2439;DHT22;14509;47.992;7.848;2023-04-20T22:15:19;9.40;53.30
2439;DHT22;14509;47.992;7.848;2023-04-20T22:17:23;9.80;53.90
2439;DHT22;14509;47.992;7.848;2023-04-20T22:19:25;9.80;53.50
2439;DHT22;14509;47.992;7.848;2023-04-20T22:21:27;9.50;53.20
2439;DHT22;14509;47.992;7.848;2023-04-20T22:23:30;9.50;53.20
2439;DHT22;14509;47.992;7.848;2023-04-20T22:25:32;9.50;53.10
2439;DHT22;14509;47.992;7.848;2023-04-20T22:27:35;9.50;53.00
2439;DHT22;14509;47.992;7.848;2023-04-20T22:29:37;9.50;53.10
2439;DHT22;14509;47.992;7.848;2023-04-20T22:31:39;9.40;53.10
2439;DHT22;14509;47.992;7.848;2023-04-20T22:33:41;9.70;53.40
2439;DHT22;14509;47.992;7.848;2023-04-20T22:35:43;9.40;53.50
2439;DHT22;14509;47.992;7.848;2023-04-20T22:37:46;9.40;53.60
2439;DHT22;14509;47.992;7.848;2023-04-20T22:39:49;9.30;53.60
2439;DHT22;14509;47.992;7.848;2023-04-20T22:41:51;9.20;53.80
2439;DHT22;14509;47.992;7.848;2023-04-20T22:43:53;9.20;53.80
2439;DHT22;14509;47.992;7.848;2023-04-20T22:45:55;9.20;53.80
2439;DHT22;14509;47.992;7.848;2023-04-20T22:47:58;9.20;53.90
2439;DHT22;14509;47.992;7.848;2023-04-20T22:50:00;9.20;53.90
2439;DHT22;14509;47.992;7.848;2023-04-20T22:52:02;9.10;53.90
2439;DHT22;14509;47.992;7.848;2023-04-20T22:54:05;9.10;54.00
2439;DHT22;14509;47.992;7.848;2023-04-20T22:56:08;9.10;54.00
2439;DHT22;14509;47.992;7.848;2023-04-20T22:58:11;9.10;54.00
2439;DHT22;14509;47.992;7.848;2023-04-20T23:00:13;9.10;54.00
2439;DHT22;14509;47.992;7.848;2023-04-20T23:02:15;9.00;54.00
2439;DHT22;14509;47.992;7.848;2023-04-20T23:04:17;9.00;54.00
2439;DHT22;14509;47.992;7.848;2023-04-20T23:06:19;9.20;54.30
2439;DHT22;14509;47.992;7.848;2023-04-20T23:08:21;9.00;54.00
2439;DHT22;14509;47.992;7.848;2023-04-20T23:10:25;9.00;54.10
2439;DHT22;14509;47.992;7.848;2023-04-20T23:12:29;8.90;54.10
2439;DHT22;14509;47.992;7.848;2023-04-20T23:14:31;8.90;54.30
2439;DHT22;14509;47.992;7.848;2023-04-20T23:16:36;8.80;54.20
2439;DHT22;14509;47.992;7.848;2023-04-20T23:18:39;8.90;54.30
2439;DHT22;14509;47.992;7.848;2023-04-20T23:20:41;8.80;54.10
2439;DHT22;14509;47.992;7.848;2023-04-20T23:22:43;8.80;54.10
2439;DHT22;14509;47.992;7.848;2023-04-20T23:24:45;8.80;54.20
2439;DHT22;14509;47.992;7.848;2023-04-20T23:26:47;9.70;54.90
2439;DHT22;14509;47.992;7.848;2023-04-20T23:28:50;9.60;54.90
2439;DHT22;14509;47.992;7.848;2023-04-20T23:30:52;8.80;54.20